sensor_id;sensor_type;location;lat;lon;timestamp;temperature;humidity
52575;DHT22;38468;48.114;-1.684;2022-08-21T00:00:40;19.50;66.50
52575;DHT22;38468;48.114;-1.684;2022-08-21T00:02:50;19.50;66.70
52575;DHT22;38468;48.114;-1.684;2022-08-21T00:04:51;19.50;66.70
52575;DHT22;38468;48.114;-1.684;2022-08-21T00:06:52;19.40;67.00
52575;DHT22;38468;48.114;-1.684;2022-08-21T00:08:53;19.40;67.10
52575;DHT22;38468;48.114;-1.684;2022-08-21T00:10:53;19.40;67.60
52575;DHT22;38468;48.114;-1.684;2022-08-21T00:12:54;19.40;67.00
52575;DHT22;38468;48.114;-1.684;2022-08-21T00:14:54;19.30;67.40
52575;DHT22;38468;48.114;-1.684;2022-08-21T00:16:55;19.40;67.20
52575;DHT22;38468;48.114;-1.684;2022-08-21T00:18:56;19.40;67.10
52575;DHT22;38468;48.114;-1.684;2022-08-21T00:20:56;19.30;67.50
52575;DHT22;38468;48.114;-1.684;2022-08-21T00:22:57;19.20;67.60
52575;DHT22;38468;48.114;-1.684;2022-08-21T00:24:57;19.20;67.70
52575;DHT22;38468;48.114;-1.684;2022-08-21T00:26:58;19.20;67.80
52575;DHT22;38468;48.114;-1.684;2022-08-21T00:28:59;19.10;68.30
52575;DHT22;38468;48.114;-1.684;2022-08-21T00:30:59;19.10;68.00
52575;DHT22;38468;48.114;-1.684;2022-08-21T00:33:00;19.10;68.20
52575;DHT22;38468;48.114;-1.684;2022-08-21T00:35:00;19.10;68.30
52575;DHT22;38468;48.114;-1.684;2022-08-21T00:37:01;19.00;68.60
52575;DHT22;38468;48.114;-1.684;2022-08-21T00:39:02;19.00;68.20
52575;DHT22;38468;48.114;-1.684;2022-08-21T00:41:04;19.10;68.50
52575;DHT22;38468;48.114;-1.684;2022-08-21T00:43:06;19.00;68.60
52575;DHT22;38468;48.114;-1.684;2022-08-21T00:45:07;19.10;68.40
52575;DHT22;38468;48.114;-1.684;2022-08-21T00:47:08;19.00;68.70
52575;DHT22;38468;48.114;-1.684;2022-08-21T00:49:09;19.10;68.60
52575;DHT22;38468;48.114;-1.684;2022-08-21T00:51:15;19.00;68.70
52575;DHT22;38468;48.114;-1.684;2022-08-21T00:53:22;19.00;68.90
52575;DHT22;38468;48.114;-1.684;2022-08-21T00:55:23;19.00;68.80
52575;DHT22;38468;48.114;-1.684;2022-08-21T00:57:28;19.00;68.80
52575;DHT22;38468;48.114;-1.684;2022-08-21T00:59:29;18.90;69.00
52575;DHT22;38468;48.114;-1.684;2022-08-21T01:01:33;18.90;69.30
52575;DHT22;38468;48.114;-1.684;2022-08-21T01:03:34;19.00;69.20
52575;DHT22;38468;48.114;-1.684;2022-08-21T01:05:36;18.90;69.30
52575;DHT22;38468;48.114;-1.684;2022-08-21T01:07:36;19.00;68.90
52575;DHT22;38468;48.114;-1.684;2022-08-21T01:09:38;19.00;69.10
52575;DHT22;38468;48.114;-1.684;2022-08-21T01:11:39;19.00;69.40
52575;DHT22;38468;48.114;-1.684;2022-08-21T01:13:40;19.00;69.20
52575;DHT22;38468;48.114;-1.684;2022-08-21T01:15:46;19.00;69.20
52575;DHT22;38468;48.114;-1.684;2022-08-21T01:17:48;18.90;69.60
52575;DHT22;38468;48.114;-1.684;2022-08-21T01:19:49;18.80;69.60
52575;DHT22;38468;48.114;-1.684;2022-08-21T01:21:50;18.70;69.90
52575;DHT22;38468;48.114;-1.684;2022-08-21T01:23:51;18.70;70.30
52575;DHT22;38468;48.114;-1.684;2022-08-21T01:25:52;18.50;70.40
52575;DHT22;38468;48.114;-1.684;2022-08-21T01:27:53;18.60;70.70
52575;DHT22;38468;48.114;-1.684;2022-08-21T01:30:04;18.60;70.30
52575;DHT22;38468;48.114;-1.684;2022-08-21T01:32:10;18.70;70.10
52575;DHT22;38468;48.114;-1.684;2022-08-21T01:34:10;18.80;69.90
52575;DHT22;38468;48.114;-1.684;2022-08-21T01:36:11;18.90;69.80
52575;DHT22;38468;48.114;-1.684;2022-08-21T01:38:12;18.90;69.70
52575;DHT22;38468;48.114;-1.684;2022-08-21T01:40:13;18.90;69.90
52575;DHT22;38468;48.114;-1.684;2022-08-21T01:42:14;18.90;69.80
52575;DHT22;38468;48.114;-1.684;2022-08-21T01:44:14;18.80;70.00
52575;DHT22;38468;48.114;-1.684;2022-08-21T01:46:15;18.70;70.00
52575;DHT22;38468;48.114;-1.684;2022-08-21T01:48:16;18.70;70.30
52575;DHT22;38468;48.114;-1.684;2022-08-21T01:50:17;18.70;70.50
52575;DHT22;38468;48.114;-1.684;2022-08-21T01:52:18;18.80;70.20
52575;DHT22;38468;48.114;-1.684;2022-08-21T01:54:19;18.70;70.10
52575;DHT22;38468;48.114;-1.684;2022-08-21T01:56:20;18.60;70.80
52575;DHT22;38468;48.114;-1.684;2022-08-21T01:58:20;18.70;70.70
52575;DHT22;38468;48.114;-1.684;2022-08-21T02:00:21;18.60;70.80
52575;DHT22;38468;48.114;-1.684;2022-08-21T02:02:25;18.60;70.70
52575;DHT22;38468;48.114;-1.684;2022-08-21T02:04:25;18.60;70.40
52575;DHT22;38468;48.114;-1.684;2022-08-21T02:06:26;18.60;70.60
52575;DHT22;38468;48.114;-1.684;2022-08-21T02:08:27;18.60;70.90
52575;DHT22;38468;48.114;-1.684;2022-08-21T02:10:29;18.50;71.00
52575;DHT22;38468;48.114;-1.684;2022-08-21T02:12:29;18.50;71.20
52575;DHT22;38468;48.114;-1.684;2022-08-21T02:14:30;18.40;71.20
52575;DHT22;38468;48.114;-1.684;2022-08-21T02:16:30;18.50;70.80
52575;DHT22;38468;48.114;-1.684;2022-08-21T02:18:31;18.50;71.00
52575;DHT22;38468;48.114;-1.684;2022-08-21T02:20:42;18.30;71.20
52575;DHT22;38468;48.114;-1.684;2022-08-21T02:22:43;18.20;71.40
52575;DHT22;38468;48.114;-1.684;2022-08-21T02:24:43;18.30;71.50
52575;DHT22;38468;48.114;-1.684;2022-08-21T02:26:44;18.20;71.40
52575;DHT22;38468;48.114;-1.684;2022-08-21T02:28:44;18.20;71.50
52575;DHT22;38468;48.114;-1.684;2022-08-21T02:30:46;18.10;71.70
52575;DHT22;38468;48.114;-1.684;2022-08-21T02:32:47;18.20;71.40
52575;DHT22;38468;48.114;-1.684;2022-08-21T02:34:47;18.20;71.40
52575;DHT22;38468;48.114;-1.684;2022-08-21T02:36:49;18.10;72.00
52575;DHT22;38468;48.114;-1.684;2022-08-21T02:38:49;18.00;72.10
52575;DHT22;38468;48.114;-1.684;2022-08-21T02:40:50;17.90;72.70
52575;DHT22;38468;48.114;-1.684;2022-08-21T02:42:51;17.70;73.40
52575;DHT22;38468;48.114;-1.684;2022-08-21T02:44:52;17.80;73.20
52575;DHT22;38468;48.114;-1.684;2022-08-21T02:46:52;17.50;73.80
52575;DHT22;38468;48.114;-1.684;2022-08-21T02:48:53;17.50;74.40
52575;DHT22;38468;48.114;-1.684;2022-08-21T02:50:55;17.60;74.10
52575;DHT22;38468;48.114;-1.684;2022-08-21T02:52:56;17.70;74.00
52575;DHT22;38468;48.114;-1.684;2022-08-21T02:54:56;17.70;74.00
52575;DHT22;38468;48.114;-1.684;2022-08-21T02:56:57;17.80;74.00
52575;DHT22;38468;48.114;-1.684;2022-08-21T02:58:57;17.60;74.50
52575;DHT22;38468;48.114;-1.684;2022-08-21T03:00:58;17.50;74.80
52575;DHT22;38468;48.114;-1.684;2022-08-21T03:02:59;17.60;74.70
52575;DHT22;38468;48.114;-1.684;2022-08-21T03:04:59;17.70;74.50
52575;DHT22;38468;48.114;-1.684;2022-08-21T03:07:00;17.80;74.20
52575;DHT22;38468;48.114;-1.684;2022-08-21T03:09:01;17.60;74.60
52575;DHT22;38468;48.114;-1.684;2022-08-21T03:11:01;17.50;74.80
52575;DHT22;38468;48.114;-1.684;2022-08-21T03:13:02;17.50;74.80
52575;DHT22;38468;48.114;-1.684;2022-08-21T03:15:04;17.50;75.00
52575;DHT22;38468;48.114;-1.684;2022-08-21T03:17:05;17.50;75.20
52575;DHT22;38468;48.114;-1.684;2022-08-21T03:19:05;17.50;74.90
52575;DHT22;38468;48.114;-1.684;2022-08-21T03:21:06;17.70;74.60
52575;DHT22;38468;48.114;-1.684;2022-08-21T03:23:06;17.80;74.50
52575;DHT22;38468;48.114;-1.684;2022-08-21T03:25:08;17.80;74.20
52575;DHT22;38468;48.114;-1.684;2022-08-21T03:27:08;17.80;74.50
52575;DHT22;38468;48.114;-1.684;2022-08-21T03:29:09;17.70;74.60
52575;DHT22;38468;48.114;-1.684;2022-08-21T03:31:10;17.90;74.30
52575;DHT22;38468;48.114;-1.684;2022-08-21T03:33:10;17.90;74.10
52575;DHT22;38468;48.114;-1.684;2022-08-21T03:35:11;17.90;74.20
52575;DHT22;38468;48.114;-1.684;2022-08-21T03:37:12;17.90;74.10
52575;DHT22;38468;48.114;-1.684;2022-08-21T03:39:13;17.90;74.10
52575;DHT22;38468;48.114;-1.684;2022-08-21T03:41:14;17.90;74.20
52575;DHT22;38468;48.114;-1.684;2022-08-21T03:43:14;17.90;74.20
52575;DHT22;38468;48.114;-1.684;2022-08-21T03:45:15;17.80;74.50
52575;DHT22;38468;48.114;-1.684;2022-08-21T03:47:17;17.70;74.70
52575;DHT22;38468;48.114;-1.684;2022-08-21T03:49:17;17.80;74.50
52575;DHT22;38468;48.114;-1.684;2022-08-21T03:51:18;17.80;74.40
52575;DHT22;38468;48.114;-1.684;2022-08-21T03:53:19;17.80;74.40
52575;DHT22;38468;48.114;-1.684;2022-08-21T03:55:19;17.80;74.30
52575;DHT22;38468;48.114;-1.684;2022-08-21T03:57:20;17.80;74.30
52575;DHT22;38468;48.114;-1.684;2022-08-21T03:59:21;17.90;74.00
52575;DHT22;38468;48.114;-1.684;2022-08-21T04:01:22;17.90;74.20
52575;DHT22;38468;48.114;-1.684;2022-08-21T04:03:23;17.90;74.20
52575;DHT22;38468;48.114;-1.684;2022-08-21T04:05:23;17.90;74.10
52575;DHT22;38468;48.114;-1.684;2022-08-21T04:07:27;18.00;73.90
52575;DHT22;38468;48.114;-1.684;2022-08-21T04:09:28;17.90;74.10
52575;DHT22;38468;48.114;-1.684;2022-08-21T04:11:28;17.80;74.10
52575;DHT22;38468;48.114;-1.684;2022-08-21T04:13:29;17.90;74.10
52575;DHT22;38468;48.114;-1.684;2022-08-21T04:15:29;17.90;73.80
52575;DHT22;38468;48.114;-1.684;2022-08-21T04:17:30;17.80;73.80
52575;DHT22;38468;48.114;-1.684;2022-08-21T04:19:30;17.70;74.00
52575;DHT22;38468;48.114;-1.684;2022-08-21T04:21:31;17.60;74.50
52575;DHT22;38468;48.114;-1.684;2022-08-21T04:23:32;17.60;74.60
52575;DHT22;38468;48.114;-1.684;2022-08-21T04:25:32;17.60;74.80
52575;DHT22;38468;48.114;-1.684;2022-08-21T04:27:34;17.70;74.40
52575;DHT22;38468;48.114;-1.684;2022-08-21T04:29:34;17.80;74.20
52575;DHT22;38468;48.114;-1.684;2022-08-21T04:31:35;17.80;74.10
52575;DHT22;38468;48.114;-1.684;2022-08-21T04:33:36;17.70;74.40
52575;DHT22;38468;48.114;-1.684;2022-08-21T04:35:37;17.70;74.20
52575;DHT22;38468;48.114;-1.684;2022-08-21T04:37:38;17.70;74.50
52575;DHT22;38468;48.114;-1.684;2022-08-21T04:39:38;17.70;74.40
52575;DHT22;38468;48.114;-1.684;2022-08-21T04:41:39;17.80;74.30
52575;DHT22;38468;48.114;-1.684;2022-08-21T04:43:39;17.70;74.30
52575;DHT22;38468;48.114;-1.684;2022-08-21T04:45:42;17.80;74.10
52575;DHT22;38468;48.114;-1.684;2022-08-21T04:47:43;17.70;74.10
52575;DHT22;38468;48.114;-1.684;2022-08-21T04:49:44;17.70;74.00
52575;DHT22;38468;48.114;-1.684;2022-08-21T04:51:46;17.50;74.30
52575;DHT22;38468;48.114;-1.684;2022-08-21T04:53:53;17.60;74.50
52575;DHT22;38468;48.114;-1.684;2022-08-21T04:55:55;17.70;74.40
52575;DHT22;38468;48.114;-1.684;2022-08-21T04:57:57;17.60;74.60
52575;DHT22;38468;48.114;-1.684;2022-08-21T04:59:58;17.60;74.60
52575;DHT22;38468;48.114;-1.684;2022-08-21T05:01:59;17.70;74.60
52575;DHT22;38468;48.114;-1.684;2022-08-21T05:04:00;17.60;74.60
52575;DHT22;38468;48.114;-1.684;2022-08-21T05:06:01;17.60;74.60
52575;DHT22;38468;48.114;-1.684;2022-08-21T05:08:03;17.60;74.60
52575;DHT22;38468;48.114;-1.684;2022-08-21T05:10:05;17.70;74.50
52575;DHT22;38468;48.114;-1.684;2022-08-21T05:12:05;17.70;74.40
52575;DHT22;38468;48.114;-1.684;2022-08-21T05:14:06;17.70;74.40
52575;DHT22;38468;48.114;-1.684;2022-08-21T05:16:06;17.70;74.40
52575;DHT22;38468;48.114;-1.684;2022-08-21T05:18:07;17.60;74.60
52575;DHT22;38468;48.114;-1.684;2022-08-21T05:20:09;17.50;74.60
52575;DHT22;38468;48.114;-1.684;2022-08-21T05:22:09;17.50;74.80
52575;DHT22;38468;48.114;-1.684;2022-08-21T05:24:10;17.60;74.60
52575;DHT22;38468;48.114;-1.684;2022-08-21T05:26:11;17.70;74.40
52575;DHT22;38468;48.114;-1.684;2022-08-21T05:28:12;17.80;74.30
52575;DHT22;38468;48.114;-1.684;2022-08-21T05:30:12;17.80;74.30
52575;DHT22;38468;48.114;-1.684;2022-08-21T05:32:13;17.90;74.00
52575;DHT22;38468;48.114;-1.684;2022-08-21T05:34:17;17.90;73.80
52575;DHT22;38468;48.114;-1.684;2022-08-21T05:36:18;17.90;74.00
52575;DHT22;38468;48.114;-1.684;2022-08-21T05:38:19;17.80;74.10
52575;DHT22;38468;48.114;-1.684;2022-08-21T05:40:19;17.80;74.20
52575;DHT22;38468;48.114;-1.684;2022-08-21T05:42:20;17.80;73.90
52575;DHT22;38468;48.114;-1.684;2022-08-21T05:44:20;17.50;74.40
52575;DHT22;38468;48.114;-1.684;2022-08-21T05:46:21;17.50;75.00
52575;DHT22;38468;48.114;-1.684;2022-08-21T05:48:22;17.60;74.90
52575;DHT22;38468;48.114;-1.684;2022-08-21T05:50:23;17.70;74.80
52575;DHT22;38468;48.114;-1.684;2022-08-21T05:52:24;17.80;74.40
52575;DHT22;38468;48.114;-1.684;2022-08-21T05:54:25;17.80;74.30
52575;DHT22;38468;48.114;-1.684;2022-08-21T05:56:25;17.80;74.20
52575;DHT22;38468;48.114;-1.684;2022-08-21T05:58:26;17.80;74.20
52575;DHT22;38468;48.114;-1.684;2022-08-21T06:00:26;17.90;74.30
52575;DHT22;38468;48.114;-1.684;2022-08-21T06:02:27;17.80;74.30
52575;DHT22;38468;48.114;-1.684;2022-08-21T06:04:27;17.70;74.50
52575;DHT22;38468;48.114;-1.684;2022-08-21T06:06:28;17.80;74.50
52575;DHT22;38468;48.114;-1.684;2022-08-21T06:08:28;17.80;74.60
52575;DHT22;38468;48.114;-1.684;2022-08-21T06:10:29;17.80;74.60
52575;DHT22;38468;48.114;-1.684;2022-08-21T06:12:30;17.80;74.50
52575;DHT22;38468;48.114;-1.684;2022-08-21T06:14:30;17.60;74.30
52575;DHT22;38468;48.114;-1.684;2022-08-21T06:16:31;17.50;74.70
52575;DHT22;38468;48.114;-1.684;2022-08-21T06:18:32;17.60;74.80
52575;DHT22;38468;48.114;-1.684;2022-08-21T06:20:33;17.80;74.70
52575;DHT22;38468;48.114;-1.684;2022-08-21T06:22:34;17.90;74.20
52575;DHT22;38468;48.114;-1.684;2022-08-21T06:24:34;18.00;74.10
52575;DHT22;38468;48.114;-1.684;2022-08-21T06:26:36;17.90;74.20
52575;DHT22;38468;48.114;-1.684;2022-08-21T06:28:37;17.90;73.80
52575;DHT22;38468;48.114;-1.684;2022-08-21T06:30:38;17.70;74.00
52575;DHT22;38468;48.114;-1.684;2022-08-21T06:32:39;17.60;74.60
52575;DHT22;38468;48.114;-1.684;2022-08-21T06:34:40;17.70;74.70
52575;DHT22;38468;48.114;-1.684;2022-08-21T06:36:41;17.70;74.40
52575;DHT22;38468;48.114;-1.684;2022-08-21T06:38:42;17.60;74.60
52575;DHT22;38468;48.114;-1.684;2022-08-21T06:40:42;17.70;74.70
52575;DHT22;38468;48.114;-1.684;2022-08-21T06:42:43;17.80;74.70
52575;DHT22;38468;48.114;-1.684;2022-08-21T06:44:44;18.00;74.10
52575;DHT22;38468;48.114;-1.684;2022-08-21T06:46:44;18.00;74.00
52575;DHT22;38468;48.114;-1.684;2022-08-21T06:48:45;18.10;73.70
52575;DHT22;38468;48.114;-1.684;2022-08-21T06:50:46;18.20;73.40
52575;DHT22;38468;48.114;-1.684;2022-08-21T06:52:46;18.30;72.80
52575;DHT22;38468;48.114;-1.684;2022-08-21T06:54:47;18.30;72.40
52575;DHT22;38468;48.114;-1.684;2022-08-21T06:56:47;18.10;73.00
52575;DHT22;38468;48.114;-1.684;2022-08-21T06:58:48;18.00;73.20
52575;DHT22;38468;48.114;-1.684;2022-08-21T07:00:49;18.00;74.00
52575;DHT22;38468;48.114;-1.684;2022-08-21T07:02:51;18.10;73.90
52575;DHT22;38468;48.114;-1.684;2022-08-21T07:04:51;18.20;73.50
52575;DHT22;38468;48.114;-1.684;2022-08-21T07:06:52;18.40;73.00
52575;DHT22;38468;48.114;-1.684;2022-08-21T07:08:53;18.40;72.80
52575;DHT22;38468;48.114;-1.684;2022-08-21T07:10:55;18.50;72.70
52575;DHT22;38468;48.114;-1.684;2022-08-21T07:12:56;18.50;72.70
52575;DHT22;38468;48.114;-1.684;2022-08-21T07:14:56;18.60;72.20
52575;DHT22;38468;48.114;-1.684;2022-08-21T07:16:58;18.80;71.70
52575;DHT22;38468;48.114;-1.684;2022-08-21T07:18:59;18.80;71.30
52575;DHT22;38468;48.114;-1.684;2022-08-21T07:21:03;18.70;71.30
52575;DHT22;38468;48.114;-1.684;2022-08-21T07:23:08;18.60;71.60
52575;DHT22;38468;48.114;-1.684;2022-08-21T07:25:09;18.50;71.40
52575;DHT22;38468;48.114;-1.684;2022-08-21T07:27:10;18.40;72.10
52575;DHT22;38468;48.114;-1.684;2022-08-21T07:29:10;18.20;72.40
52575;DHT22;38468;48.114;-1.684;2022-08-21T07:31:12;18.10;73.00
52575;DHT22;38468;48.114;-1.684;2022-08-21T07:33:13;18.10;73.60
52575;DHT22;38468;48.114;-1.684;2022-08-21T07:35:14;18.20;73.40
52575;DHT22;38468;48.114;-1.684;2022-08-21T07:37:15;18.40;72.90
52575;DHT22;38468;48.114;-1.684;2022-08-21T07:39:16;18.40;72.90
52575;DHT22;38468;48.114;-1.684;2022-08-21T07:41:18;18.40;72.80
52575;DHT22;38468;48.114;-1.684;2022-08-21T07:43:19;18.40;73.20
52575;DHT22;38468;48.114;-1.684;2022-08-21T07:45:20;18.50;72.90
52575;DHT22;38468;48.114;-1.684;2022-08-21T07:47:20;18.60;72.80
52575;DHT22;38468;48.114;-1.684;2022-08-21T07:49:21;18.70;72.70
52575;DHT22;38468;48.114;-1.684;2022-08-21T07:51:23;18.90;72.00
52575;DHT22;38468;48.114;-1.684;2022-08-21T07:53:25;19.00;71.90
52575;DHT22;38468;48.114;-1.684;2022-08-21T07:55:25;19.00;71.60
52575;DHT22;38468;48.114;-1.684;2022-08-21T07:57:26;19.00;71.40
52575;DHT22;38468;48.114;-1.684;2022-08-21T07:59:26;19.00;71.70
52575;DHT22;38468;48.114;-1.684;2022-08-21T08:01:27;19.10;71.30
52575;DHT22;38468;48.114;-1.684;2022-08-21T08:03:28;19.00;71.10
52575;DHT22;38468;48.114;-1.684;2022-08-21T08:05:29;19.10;70.50
52575;DHT22;38468;48.114;-1.684;2022-08-21T08:07:30;18.90;71.20
52575;DHT22;38468;48.114;-1.684;2022-08-21T08:09:30;19.00;71.50
52575;DHT22;38468;48.114;-1.684;2022-08-21T08:11:31;19.00;71.00
52575;DHT22;38468;48.114;-1.684;2022-08-21T08:13:31;19.00;71.40
52575;DHT22;38468;48.114;-1.684;2022-08-21T08:15:37;19.00;70.70
52575;DHT22;38468;48.114;-1.684;2022-08-21T08:17:38;18.90;70.80
52575;DHT22;38468;48.114;-1.684;2022-08-21T08:19:39;18.80;71.40
52575;DHT22;38468;48.114;-1.684;2022-08-21T08:21:39;18.70;71.60
52575;DHT22;38468;48.114;-1.684;2022-08-21T08:23:40;18.60;71.80
52575;DHT22;38468;48.114;-1.684;2022-08-21T08:25:40;18.60;71.80
52575;DHT22;38468;48.114;-1.684;2022-08-21T08:27:41;18.50;72.00
52575;DHT22;38468;48.114;-1.684;2022-08-21T08:29:42;18.50;71.80
52575;DHT22;38468;48.114;-1.684;2022-08-21T08:31:43;18.50;72.50
52575;DHT22;38468;48.114;-1.684;2022-08-21T08:33:43;18.70;72.50
52575;DHT22;38468;48.114;-1.684;2022-08-21T08:35:44;18.70;71.90
52575;DHT22;38468;48.114;-1.684;2022-08-21T08:37:45;18.70;71.80
52575;DHT22;38468;48.114;-1.684;2022-08-21T08:39:46;18.70;71.80
52575;DHT22;38468;48.114;-1.684;2022-08-21T08:41:46;18.90;71.50
52575;DHT22;38468;48.114;-1.684;2022-08-21T08:43:51;19.00;71.50
52575;DHT22;38468;48.114;-1.684;2022-08-21T08:45:53;18.90;71.40
52575;DHT22;38468;48.114;-1.684;2022-08-21T08:48:04;19.20;71.00
52575;DHT22;38468;48.114;-1.684;2022-08-21T08:50:07;19.50;70.70
52575;DHT22;38468;48.114;-1.684;2022-08-21T08:54:17;19.60;68.90
52575;DHT22;38468;48.114;-1.684;2022-08-21T08:56:22;19.70;69.20
52575;DHT22;38468;48.114;-1.684;2022-08-21T09:00:24;19.40;70.70
52575;DHT22;38468;48.114;-1.684;2022-08-21T09:02:25;19.70;69.90
52575;DHT22;38468;48.114;-1.684;2022-08-21T09:04:27;19.90;67.90
52575;DHT22;38468;48.114;-1.684;2022-08-21T09:08:45;20.00;67.10
52575;DHT22;38468;48.114;-1.684;2022-08-21T09:13:05;20.30;66.00
52575;DHT22;38468;48.114;-1.684;2022-08-21T09:19:23;20.20;65.60
52575;DHT22;38468;48.114;-1.684;2022-08-21T09:28:00;20.80;65.00
52575;DHT22;38468;48.114;-1.684;2022-08-21T09:30:01;20.80;63.60
52575;DHT22;38468;48.114;-1.684;2022-08-21T09:32:03;20.50;63.00
52575;DHT22;38468;48.114;-1.684;2022-08-21T09:34:09;20.40;63.20
52575;DHT22;38468;48.114;-1.684;2022-08-21T09:36:10;20.20;63.50
52575;DHT22;38468;48.114;-1.684;2022-08-21T09:38:10;20.30;63.80
52575;DHT22;38468;48.114;-1.684;2022-08-21T09:40:30;20.30;64.90
52575;DHT22;38468;48.114;-1.684;2022-08-21T09:42:31;20.30;64.50
52575;DHT22;38468;48.114;-1.684;2022-08-21T09:44:33;20.20;65.00
52575;DHT22;38468;48.114;-1.684;2022-08-21T09:46:34;20.40;65.10
52575;DHT22;38468;48.114;-1.684;2022-08-21T09:48:40;20.20;64.70
52575;DHT22;38468;48.114;-1.684;2022-08-21T09:50:41;20.10;65.20
52575;DHT22;38468;48.114;-1.684;2022-08-21T09:52:43;20.00;65.20
52575;DHT22;38468;48.114;-1.684;2022-08-21T09:54:45;20.10;65.60
52575;DHT22;38468;48.114;-1.684;2022-08-21T09:56:56;20.40;65.10
52575;DHT22;38468;48.114;-1.684;2022-08-21T09:59:18;20.30;63.60
52575;DHT22;38468;48.114;-1.684;2022-08-21T10:01:23;20.10;64.80
52575;DHT22;38468;48.114;-1.684;2022-08-21T10:03:24;20.30;64.80
52575;DHT22;38468;48.114;-1.684;2022-08-21T10:05:25;20.50;64.60
52575;DHT22;38468;48.114;-1.684;2022-08-21T10:07:28;20.70;64.30
52575;DHT22;38468;48.114;-1.684;2022-08-21T10:09:29;20.50;63.70
52575;DHT22;38468;48.114;-1.684;2022-08-21T10:11:30;20.70;64.00
52575;DHT22;38468;48.114;-1.684;2022-08-21T10:13:56;20.80;63.30
52575;DHT22;38468;48.114;-1.684;2022-08-21T10:20:03;20.60;64.70
52575;DHT22;38468;48.114;-1.684;2022-08-21T10:24:17;20.50;64.50
52575;DHT22;38468;48.114;-1.684;2022-08-21T10:32:34;20.50;66.70
52575;DHT22;38468;48.114;-1.684;2022-08-21T10:36:46;21.00;66.50
52575;DHT22;38468;48.114;-1.684;2022-08-21T10:41:11;21.10;65.40
52575;DHT22;38468;48.114;-1.684;2022-08-21T10:47:49;20.20;68.10
52575;DHT22;38468;48.114;-1.684;2022-08-21T10:52:01;20.50;68.00
52575;DHT22;38468;48.114;-1.684;2022-08-21T10:54:12;20.60;68.00
52575;DHT22;38468;48.114;-1.684;2022-08-21T10:56:16;20.50;68.00
52575;DHT22;38468;48.114;-1.684;2022-08-21T10:58:28;20.50;68.10
52575;DHT22;38468;48.114;-1.684;2022-08-21T11:00:35;20.50;68.70
52575;DHT22;38468;48.114;-1.684;2022-08-21T11:04:56;20.90;68.00
52575;DHT22;38468;48.114;-1.684;2022-08-21T11:07:00;20.70;68.40
52575;DHT22;38468;48.114;-1.684;2022-08-21T11:09:21;20.60;68.60
52575;DHT22;38468;48.114;-1.684;2022-08-21T11:11:25;20.60;69.00
52575;DHT22;38468;48.114;-1.684;2022-08-21T11:13:32;20.70;68.60
52575;DHT22;38468;48.114;-1.684;2022-08-21T11:17:50;20.30;69.30
52575;DHT22;38468;48.114;-1.684;2022-08-21T11:24:30;20.00;69.90
52575;DHT22;38468;48.114;-1.684;2022-08-21T11:27:18;20.00;70.30
52575;DHT22;38468;48.114;-1.684;2022-08-21T11:29:05;19.80;70.60
52575;DHT22;38468;48.114;-1.684;2022-08-21T11:33:22;20.00;70.90
52575;DHT22;38468;48.114;-1.684;2022-08-21T11:40:00;19.80;70.90
52575;DHT22;38468;48.114;-1.684;2022-08-21T11:42:10;19.70;72.00
52575;DHT22;38468;48.114;-1.684;2022-08-21T11:50:44;19.80;74.80
52575;DHT22;38468;48.114;-1.684;2022-08-21T11:52:50;20.00;74.50
52575;DHT22;38468;48.114;-1.684;2022-08-21T11:57:04;20.10;74.00
52575;DHT22;38468;48.114;-1.684;2022-08-21T11:59:06;19.90;74.80
52575;DHT22;38468;48.114;-1.684;2022-08-21T12:01:18;19.60;75.80
52575;DHT22;38468;48.114;-1.684;2022-08-21T12:03:28;19.70;76.00
52575;DHT22;38468;48.114;-1.684;2022-08-21T12:05:35;19.50;76.80
52575;DHT22;38468;48.114;-1.684;2022-08-21T12:09:37;19.60;76.50
52575;DHT22;38468;48.114;-1.684;2022-08-21T12:11:47;19.50;76.60
52575;DHT22;38468;48.114;-1.684;2022-08-21T12:16:13;19.10;77.20
52575;DHT22;38468;48.114;-1.684;2022-08-21T12:18:22;19.10;77.90
52575;DHT22;38468;48.114;-1.684;2022-08-21T12:20:35;18.90;78.00
52575;DHT22;38468;48.114;-1.684;2022-08-21T12:22:39;18.90;78.40
52575;DHT22;38468;48.114;-1.684;2022-08-21T12:24:44;18.80;78.10
52575;DHT22;38468;48.114;-1.684;2022-08-21T12:28:49;18.80;78.80
52575;DHT22;38468;48.114;-1.684;2022-08-21T12:30:50;18.70;79.10
52575;DHT22;38468;48.114;-1.684;2022-08-21T12:32:58;18.80;79.10
52575;DHT22;38468;48.114;-1.684;2022-08-21T12:35:18;18.80;79.60
52575;DHT22;38468;48.114;-1.684;2022-08-21T12:39:25;19.20;79.50
52575;DHT22;38468;48.114;-1.684;2022-08-21T12:41:27;19.30;78.90
52575;DHT22;38468;48.114;-1.684;2022-08-21T12:43:31;19.30;78.90
52575;DHT22;38468;48.114;-1.684;2022-08-21T12:45:37;19.10;79.00
52575;DHT22;38468;48.114;-1.684;2022-08-21T12:50:13;19.30;79.40
52575;DHT22;38468;48.114;-1.684;2022-08-21T12:54:45;19.50;79.40
52575;DHT22;38468;48.114;-1.684;2022-08-21T12:56:54;19.30;78.40
52575;DHT22;38468;48.114;-1.684;2022-08-21T12:58:56;19.30;78.30
52575;DHT22;38468;48.114;-1.684;2022-08-21T13:01:04;19.20;78.20
52575;DHT22;38468;48.114;-1.684;2022-08-21T13:03:06;19.00;78.80
52575;DHT22;38468;48.114;-1.684;2022-08-21T13:05:07;19.00;79.70
52575;DHT22;38468;48.114;-1.684;2022-08-21T13:07:11;19.30;79.60
52575;DHT22;38468;48.114;-1.684;2022-08-21T13:09:15;19.40;79.60
52575;DHT22;38468;48.114;-1.684;2022-08-21T13:11:18;19.60;79.30
52575;DHT22;38468;48.114;-1.684;2022-08-21T13:13:20;19.80;78.40
52575;DHT22;38468;48.114;-1.684;2022-08-21T13:15:37;19.90;77.90
52575;DHT22;38468;48.114;-1.684;2022-08-21T13:17:39;19.50;78.40
52575;DHT22;38468;48.114;-1.684;2022-08-21T13:19:40;19.70;79.00
52575;DHT22;38468;48.114;-1.684;2022-08-21T13:21:41;20.00;78.60
52575;DHT22;38468;48.114;-1.684;2022-08-21T13:23:42;20.10;77.60
52575;DHT22;38468;48.114;-1.684;2022-08-21T13:25:43;20.00;77.40
52575;DHT22;38468;48.114;-1.684;2022-08-21T13:27:45;19.70;77.30
52575;DHT22;38468;48.114;-1.684;2022-08-21T13:32:03;19.60;78.30
52575;DHT22;38468;48.114;-1.684;2022-08-21T13:34:04;19.70;78.30
52575;DHT22;38468;48.114;-1.684;2022-08-21T13:36:17;19.60;78.20
52575;DHT22;38468;48.114;-1.684;2022-08-21T13:38:20;19.60;78.50
52575;DHT22;38468;48.114;-1.684;2022-08-21T13:40:26;19.40;78.00
52575;DHT22;38468;48.114;-1.684;2022-08-21T13:42:29;19.50;78.20
52575;DHT22;38468;48.114;-1.684;2022-08-21T13:46:36;19.70;78.20
52575;DHT22;38468;48.114;-1.684;2022-08-21T13:48:36;19.80;78.30
52575;DHT22;38468;48.114;-1.684;2022-08-21T13:50:38;19.70;78.30
52575;DHT22;38468;48.114;-1.684;2022-08-21T13:52:46;19.50;78.20
52575;DHT22;38468;48.114;-1.684;2022-08-21T13:54:55;19.50;78.70
52575;DHT22;38468;48.114;-1.684;2022-08-21T13:56:56;19.60;78.70
52575;DHT22;38468;48.114;-1.684;2022-08-21T13:58:57;19.70;78.60
52575;DHT22;38468;48.114;-1.684;2022-08-21T14:00:58;19.60;78.40
52575;DHT22;38468;48.114;-1.684;2022-08-21T14:03:02;19.50;78.20
52575;DHT22;38468;48.114;-1.684;2022-08-21T14:05:03;19.20;78.90